sensor_id;sensor_type;location;lat;lon;timestamp;P1;durP1;ratioP1;P2;durP2;ratioP2
30147;SDS011;16960;49.404;8.248;2023-05-10T00:00:42;1.30;;;1.20;;
30147;SDS011;16960;49.404;8.248;2023-05-10T00:03:09;1.40;;;1.30;;
30147;SDS011;16960;49.404;8.248;2023-05-10T00:05:36;1.40;;;1.30;;
30147;SDS011;16960;49.404;8.248;2023-05-10T00:08:03;1.63;;;1.53;;
30147;SDS011;16960;49.404;8.248;2023-05-10T00:10:30;1.20;;;1.10;;
30147;SDS011;16960;49.404;8.248;2023-05-10T00:12:57;1.70;;;1.47;;
30147;SDS011;16960;49.404;8.248;2023-05-10T00:15:25;1.33;;;1.23;;
30147;SDS011;16960;49.404;8.248;2023-05-10T00:17:52;1.60;;;1.50;;
30147;SDS011;16960;49.404;8.248;2023-05-10T00:20:19;1.50;;;1.40;;
30147;SDS011;16960;49.404;8.248;2023-05-10T00:22:46;0.80;;;0.80;;
30147;SDS011;16960;49.404;8.248;2023-05-10T00:25:13;1.60;;;1.33;;
30147;SDS011;16960;49.404;8.248;2023-05-10T00:27:40;1.57;;;1.47;;
30147;SDS011;16960;49.404;8.248;2023-05-10T00:30:07;0.90;;;0.90;;
30147;SDS011;16960;49.404;8.248;2023-05-10T00:32:38;1.10;;;1.00;;
30147;SDS011;16960;49.404;8.248;2023-05-10T00:35:05;1.03;;;0.97;;
30147;SDS011;16960;49.404;8.248;2023-05-10T00:37:32;1.20;;;1.10;;
30147;SDS011;16960;49.404;8.248;2023-05-10T00:39:59;1.20;;;1.10;;
30147;SDS011;16960;49.404;8.248;2023-05-10T00:42:26;1.13;;;1.00;;
30147;SDS011;16960;49.404;8.248;2023-05-10T00:44:53;2.20;;;1.40;;
30147;SDS011;16960;49.404;8.248;2023-05-10T00:47:20;1.40;;;1.30;;
30147;SDS011;16960;49.404;8.248;2023-05-10T00:49:49;1.20;;;1.10;;
30147;SDS011;16960;49.404;8.248;2023-05-10T00:52:16;1.33;;;1.23;;
30147;SDS011;16960;49.404;8.248;2023-05-10T00:54:43;1.00;;;0.93;;
30147;SDS011;16960;49.404;8.248;2023-05-10T00:57:10;1.30;;;1.20;;
30147;SDS011;16960;49.404;8.248;2023-05-10T00:59:37;1.23;;;1.13;;
30147;SDS011;16960;49.404;8.248;2023-05-10T01:02:04;1.37;;;1.00;;
30147;SDS011;16960;49.404;8.248;2023-05-10T01:04:32;1.13;;;1.10;;
30147;SDS011;16960;49.404;8.248;2023-05-10T01:07:01;1.27;;;1.17;;
30147;SDS011;16960;49.404;8.248;2023-05-10T01:09:28;1.50;;;1.40;;
30147;SDS011;16960;49.404;8.248;2023-05-10T01:11:55;1.10;;;1.00;;
30147;SDS011;16960;49.404;8.248;2023-05-10T01:14:22;1.37;;;1.27;;
30147;SDS011;16960;49.404;8.248;2023-05-10T01:16:51;1.27;;;1.17;;
30147;SDS011;16960;49.404;8.248;2023-05-10T01:19:21;1.20;;;1.10;;
30147;SDS011;16960;49.404;8.248;2023-05-10T01:21:53;1.37;;;1.27;;
30147;SDS011;16960;49.404;8.248;2023-05-10T01:24:49;0.90;;;0.80;;
30147;SDS011;16960;49.404;8.248;2023-05-10T01:27:47;1.23;;;1.13;;
30147;SDS011;16960;49.404;8.248;2023-05-10T01:30:35;0.90;;;0.90;;
30147;SDS011;16960;49.404;8.248;2023-05-10T01:33:25;1.40;;;1.30;;
30147;SDS011;16960;49.404;8.248;2023-05-10T01:35:58;1.10;;;1.00;;
30147;SDS011;16960;49.404;8.248;2023-05-10T01:38:32;1.33;;;1.10;;
30147;SDS011;16960;49.404;8.248;2023-05-10T01:41:08;1.20;;;1.10;;
30147;SDS011;16960;49.404;8.248;2023-05-10T01:43:43;1.43;;;1.33;;
30147;SDS011;16960;49.404;8.248;2023-05-10T01:46:20;1.37;;;1.10;;
30147;SDS011;16960;49.404;8.248;2023-05-10T01:48:55;1.10;;;1.00;;
30147;SDS011;16960;49.404;8.248;2023-05-10T01:51:25;0.90;;;0.90;;
30147;SDS011;16960;49.404;8.248;2023-05-10T01:53:58;0.90;;;0.77;;
30147;SDS011;16960;49.404;8.248;2023-05-10T01:56:28;1.00;;;0.90;;
30147;SDS011;16960;49.404;8.248;2023-05-10T01:58:58;0.93;;;0.93;;
30147;SDS011;16960;49.404;8.248;2023-05-10T02:01:26;1.10;;;1.00;;
30147;SDS011;16960;49.404;8.248;2023-05-10T02:03:55;1.10;;;1.00;;
30147;SDS011;16960;49.404;8.248;2023-05-10T02:06:23;0.87;;;0.87;;
30147;SDS011;16960;49.404;8.248;2023-05-10T02:08:52;0.80;;;0.80;;
30147;SDS011;16960;49.404;8.248;2023-05-10T02:11:19;0.80;;;0.80;;
30147;SDS011;16960;49.404;8.248;2023-05-10T02:13:48;1.40;;;1.10;;
30147;SDS011;16960;49.404;8.248;2023-05-10T02:16:17;1.10;;;1.00;;
30147;SDS011;16960;49.404;8.248;2023-05-10T02:18:48;1.00;;;1.00;;
30147;SDS011;16960;49.404;8.248;2023-05-10T02:21:17;1.10;;;1.00;;
30147;SDS011;16960;49.404;8.248;2023-05-10T02:23:46;1.20;;;1.10;;
30147;SDS011;16960;49.404;8.248;2023-05-10T02:26:17;1.10;;;1.00;;
30147;SDS011;16960;49.404;8.248;2023-05-10T02:28:46;1.07;;;0.97;;
30147;SDS011;16960;49.404;8.248;2023-05-10T02:31:15;1.33;;;1.23;;
30147;SDS011;16960;49.404;8.248;2023-05-10T02:33:43;1.27;;;1.10;;
30147;SDS011;16960;49.404;8.248;2023-05-10T02:36:12;1.00;;;1.00;;
30147;SDS011;16960;49.404;8.248;2023-05-10T02:38:41;0.90;;;0.90;;
30147;SDS011;16960;49.404;8.248;2023-05-10T02:41:09;1.07;;;0.97;;
30147;SDS011;16960;49.404;8.248;2023-05-10T02:43:37;1.10;;;1.00;;
30147;SDS011;16960;49.404;8.248;2023-05-10T02:46:06;1.20;;;1.10;;
30147;SDS011;16960;49.404;8.248;2023-05-10T02:48:33;0.80;;;0.80;;
30147;SDS011;16960;49.404;8.248;2023-05-10T02:51:00;1.30;;;1.13;;
30147;SDS011;16960;49.404;8.248;2023-05-10T02:53:33;1.03;;;0.80;;
30147;SDS011;16960;49.404;8.248;2023-05-10T02:56:07;1.37;;;1.10;;
30147;SDS011;16960;49.404;8.248;2023-05-10T02:58:38;1.37;;;1.00;;
30147;SDS011;16960;49.404;8.248;2023-05-10T03:01:05;0.87;;;0.80;;
30147;SDS011;16960;49.404;8.248;2023-05-10T03:03:32;1.30;;;1.10;;
30147;SDS011;16960;49.404;8.248;2023-05-10T03:06:00;1.00;;;0.90;;
30147;SDS011;16960;49.404;8.248;2023-05-10T03:08:27;1.10;;;1.00;;
30147;SDS011;16960;49.404;8.248;2023-05-10T03:10:57;1.40;;;1.30;;
30147;SDS011;16960;49.404;8.248;2023-05-10T03:13:53;1.20;;;1.10;;
30147;SDS011;16960;49.404;8.248;2023-05-10T03:16:32;0.80;;;0.80;;
30147;SDS011;16960;49.404;8.248;2023-05-10T03:19:08;0.97;;;0.97;;
30147;SDS011;16960;49.404;8.248;2023-05-10T03:21:40;1.27;;;0.87;;
30147;SDS011;16960;49.404;8.248;2023-05-10T03:24:11;2.03;;;0.90;;
30147;SDS011;16960;49.404;8.248;2023-05-10T03:26:40;1.20;;;0.77;;
30147;SDS011;16960;49.404;8.248;2023-05-10T03:29:12;0.90;;;0.90;;
30147;SDS011;16960;49.404;8.248;2023-05-10T03:31:40;1.10;;;1.00;;
30147;SDS011;16960;49.404;8.248;2023-05-10T03:34:07;0.77;;;0.77;;
30147;SDS011;16960;49.404;8.248;2023-05-10T03:36:34;0.70;;;0.70;;
30147;SDS011;16960;49.404;8.248;2023-05-10T03:39:01;0.80;;;0.70;;
30147;SDS011;16960;49.404;8.248;2023-05-10T03:41:28;0.77;;;0.77;;
30147;SDS011;16960;49.404;8.248;2023-05-10T03:43:55;0.60;;;0.60;;
30147;SDS011;16960;49.404;8.248;2023-05-10T03:46:24;1.20;;;0.97;;
30147;SDS011;16960;49.404;8.248;2023-05-10T03:48:51;0.83;;;0.83;;
30147;SDS011;16960;49.404;8.248;2023-05-10T03:51:18;0.77;;;0.77;;
30147;SDS011;16960;49.404;8.248;2023-05-10T03:53:45;1.03;;;0.90;;
30147;SDS011;16960;49.404;8.248;2023-05-10T03:56:12;1.07;;;0.93;;
30147;SDS011;16960;49.404;8.248;2023-05-10T03:58:39;1.10;;;1.00;;
30147;SDS011;16960;49.404;8.248;2023-05-10T04:01:06;1.33;;;0.90;;
30147;SDS011;16960;49.404;8.248;2023-05-10T04:03:34;0.93;;;0.90;;
30147;SDS011;16960;49.404;8.248;2023-05-10T04:06:01;0.70;;;0.70;;
30147;SDS011;16960;49.404;8.248;2023-05-10T04:08:28;0.80;;;0.80;;
30147;SDS011;16960;49.404;8.248;2023-05-10T04:11:04;0.83;;;0.83;;
30147;SDS011;16960;49.404;8.248;2023-05-10T04:13:32;0.90;;;0.90;;
30147;SDS011;16960;49.404;8.248;2023-05-10T04:15:59;1.23;;;0.60;;
30147;SDS011;16960;49.404;8.248;2023-05-10T04:18:25;1.00;;;0.90;;
30147;SDS011;16960;49.404;8.248;2023-05-10T04:20:54;0.70;;;0.70;;
30147;SDS011;16960;49.404;8.248;2023-05-10T04:23:21;0.70;;;0.70;;
30147;SDS011;16960;49.404;8.248;2023-05-10T04:25:48;1.33;;;0.70;;
30147;SDS011;16960;49.404;8.248;2023-05-10T04:28:15;1.20;;;0.97;;
30147;SDS011;16960;49.404;8.248;2023-05-10T04:30:42;0.67;;;0.67;;
30147;SDS011;16960;49.404;8.248;2023-05-10T04:33:08;1.10;;;1.00;;
30147;SDS011;16960;49.404;8.248;2023-05-10T04:35:35;0.93;;;0.83;;
30147;SDS011;16960;49.404;8.248;2023-05-10T04:38:04;1.50;;;1.00;;
30147;SDS011;16960;49.404;8.248;2023-05-10T04:40:31;1.03;;;0.87;;
30147;SDS011;16960;49.404;8.248;2023-05-10T04:42:57;1.27;;;0.87;;
30147;SDS011;16960;49.404;8.248;2023-05-10T04:45:24;0.70;;;0.70;;
30147;SDS011;16960;49.404;8.248;2023-05-10T04:47:51;1.10;;;1.00;;
30147;SDS011;16960;49.404;8.248;2023-05-10T04:50:18;0.90;;;0.90;;
30147;SDS011;16960;49.404;8.248;2023-05-10T04:52:45;0.80;;;0.80;;
30147;SDS011;16960;49.404;8.248;2023-05-10T04:55:13;1.00;;;1.00;;
30147;SDS011;16960;49.404;8.248;2023-05-10T04:57:41;1.67;;;1.00;;
30147;SDS011;16960;49.404;8.248;2023-05-10T05:00:08;0.87;;;0.87;;
30147;SDS011;16960;49.404;8.248;2023-05-10T05:02:36;0.83;;;0.83;;
30147;SDS011;16960;49.404;8.248;2023-05-10T05:05:03;1.07;;;0.97;;
30147;SDS011;16960;49.404;8.248;2023-05-10T05:07:30;0.70;;;0.70;;
30147;SDS011;16960;49.404;8.248;2023-05-10T05:09:57;0.80;;;0.80;;
30147;SDS011;16960;49.404;8.248;2023-05-10T05:12:25;0.83;;;0.83;;
30147;SDS011;16960;49.404;8.248;2023-05-10T05:14:52;0.60;;;0.57;;
30147;SDS011;16960;49.404;8.248;2023-05-10T05:17:19;0.70;;;0.70;;
30147;SDS011;16960;49.404;8.248;2023-05-10T05:19:46;0.83;;;0.83;;
30147;SDS011;16960;49.404;8.248;2023-05-10T05:22:13;1.17;;;0.80;;
30147;SDS011;16960;49.404;8.248;2023-05-10T05:24:40;1.00;;;0.90;;
30147;SDS011;16960;49.404;8.248;2023-05-10T05:27:07;1.00;;;0.87;;
30147;SDS011;16960;49.404;8.248;2023-05-10T05:29:35;1.10;;;1.00;;
30147;SDS011;16960;49.404;8.248;2023-05-10T05:32:02;0.70;;;0.70;;
30147;SDS011;16960;49.404;8.248;2023-05-10T05:34:29;1.47;;;1.00;;
30147;SDS011;16960;49.404;8.248;2023-05-10T05:36:56;1.10;;;1.00;;
30147;SDS011;16960;49.404;8.248;2023-05-10T05:39:23;0.97;;;0.70;;
30147;SDS011;16960;49.404;8.248;2023-05-10T05:41:50;0.70;;;0.70;;
30147;SDS011;16960;49.404;8.248;2023-05-10T05:44:16;3.07;;;0.90;;
30147;SDS011;16960;49.404;8.248;2023-05-10T05:46:45;1.30;;;1.07;;
30147;SDS011;16960;49.404;8.248;2023-05-10T05:49:12;1.50;;;0.70;;
30147;SDS011;16960;49.404;8.248;2023-05-10T05:51:39;0.80;;;0.70;;
30147;SDS011;16960;49.404;8.248;2023-05-10T05:54:05;3.17;;;0.80;;
30147;SDS011;16960;49.404;8.248;2023-05-10T05:56:32;1.37;;;0.80;;
30147;SDS011;16960;49.404;8.248;2023-05-10T05:58:59;2.07;;;1.10;;
30147;SDS011;16960;49.404;8.248;2023-05-10T06:01:27;0.90;;;0.80;;
30147;SDS011;16960;49.404;8.248;2023-05-10T06:03:55;0.83;;;0.77;;
30147;SDS011;16960;49.404;8.248;2023-05-10T06:06:22;2.60;;;1.07;;
30147;SDS011;16960;49.404;8.248;2023-05-10T06:08:49;1.17;;;0.90;;
30147;SDS011;16960;49.404;8.248;2023-05-10T06:11:16;3.73;;;2.63;;
30147;SDS011;16960;49.404;8.248;2023-05-10T06:13:43;4.57;;;2.50;;
30147;SDS011;16960;49.404;8.248;2023-05-10T06:16:10;4.37;;;2.33;;
30147;SDS011;16960;49.404;8.248;2023-05-10T06:18:38;4.97;;;2.20;;
30147;SDS011;16960;49.404;8.248;2023-05-10T06:21:06;3.30;;;1.90;;
30147;SDS011;16960;49.404;8.248;2023-05-10T06:23:34;2.43;;;1.67;;
30147;SDS011;16960;49.404;8.248;2023-05-10T06:26:01;4.90;;;2.00;;
30147;SDS011;16960;49.404;8.248;2023-05-10T06:28:28;2.20;;;1.90;;
30147;SDS011;16960;49.404;8.248;2023-05-10T06:30:56;2.97;;;1.93;;
30147;SDS011;16960;49.404;8.248;2023-05-10T06:33:23;1.97;;;1.77;;
30147;SDS011;16960;49.404;8.248;2023-05-10T06:35:50;5.70;;;3.07;;
30147;SDS011;16960;49.404;8.248;2023-05-10T06:38:18;3.00;;;2.10;;
30147;SDS011;16960;49.404;8.248;2023-05-10T06:40:45;2.10;;;1.30;;
30147;SDS011;16960;49.404;8.248;2023-05-10T06:43:12;4.77;;;2.07;;
30147;SDS011;16960;49.404;8.248;2023-05-10T06:45:39;2.10;;;1.90;;
30147;SDS011;16960;49.404;8.248;2023-05-10T06:48:07;5.03;;;2.17;;
30147;SDS011;16960;49.404;8.248;2023-05-10T06:50:34;2.83;;;1.63;;
30147;SDS011;16960;49.404;8.248;2023-05-10T06:53:01;1.93;;;1.50;;
30147;SDS011;16960;49.404;8.248;2023-05-10T06:55:30;3.77;;;2.47;;
30147;SDS011;16960;49.404;8.248;2023-05-10T06:57:57;2.33;;;1.80;;
30147;SDS011;16960;49.404;8.248;2023-05-10T07:00:23;2.73;;;1.70;;
30147;SDS011;16960;49.404;8.248;2023-05-10T07:02:51;3.70;;;1.80;;
30147;SDS011;16960;49.404;8.248;2023-05-10T07:05:18;2.40;;;1.43;;
30147;SDS011;16960;49.404;8.248;2023-05-10T07:07:45;3.00;;;1.70;;
30147;SDS011;16960;49.404;8.248;2023-05-10T07:10:12;1.57;;;1.20;;
30147;SDS011;16960;49.404;8.248;2023-05-10T07:12:40;4.23;;;1.50;;
30147;SDS011;16960;49.404;8.248;2023-05-10T07:15:08;1.90;;;1.50;;
30147;SDS011;16960;49.404;8.248;2023-05-10T07:17:35;4.23;;;1.70;;
30147;SDS011;16960;49.404;8.248;2023-05-10T07:20:03;3.93;;;2.13;;
30147;SDS011;16960;49.404;8.248;2023-05-10T07:22:30;2.10;;;1.60;;
30147;SDS011;16960;49.404;8.248;2023-05-10T07:24:57;2.70;;;1.40;;
30147;SDS011;16960;49.404;8.248;2023-05-10T07:27:24;1.60;;;1.10;;
30147;SDS011;16960;49.404;8.248;2023-05-10T07:29:52;2.10;;;1.50;;
30147;SDS011;16960;49.404;8.248;2023-05-10T07:32:19;1.50;;;1.40;;
30147;SDS011;16960;49.404;8.248;2023-05-10T07:34:46;3.60;;;1.50;;
30147;SDS011;16960;49.404;8.248;2023-05-10T07:37:13;7.87;;;1.80;;
30147;SDS011;16960;49.404;8.248;2023-05-10T07:39:40;1.33;;;1.23;;
30147;SDS011;16960;49.404;8.248;2023-05-10T07:42:07;2.00;;;1.30;;
30147;SDS011;16960;49.404;8.248;2023-05-10T07:44:34;1.87;;;1.60;;
30147;SDS011;16960;49.404;8.248;2023-05-10T07:47:02;2.20;;;1.37;;
30147;SDS011;16960;49.404;8.248;2023-05-10T07:49:29;1.27;;;1.17;;
30147;SDS011;16960;49.404;8.248;2023-05-10T07:51:56;1.50;;;1.20;;
30147;SDS011;16960;49.404;8.248;2023-05-10T07:54:23;1.93;;;1.33;;
30147;SDS011;16960;49.404;8.248;2023-05-10T07:56:50;2.30;;;1.50;;
30147;SDS011;16960;49.404;8.248;2023-05-10T07:59:17;1.40;;;1.17;;
30147;SDS011;16960;49.404;8.248;2023-05-10T08:01:44;1.10;;;1.00;;
30147;SDS011;16960;49.404;8.248;2023-05-10T08:04:13;1.80;;;1.30;;
30147;SDS011;16960;49.404;8.248;2023-05-10T08:06:40;1.50;;;1.23;;
30147;SDS011;16960;49.404;8.248;2023-05-10T08:09:07;1.63;;;1.10;;
30147;SDS011;16960;49.404;8.248;2023-05-10T08:11:34;1.50;;;1.40;;
30147;SDS011;16960;49.404;8.248;2023-05-10T08:14:01;1.40;;;1.03;;
30147;SDS011;16960;49.404;8.248;2023-05-10T08:16:28;1.70;;;1.40;;
30147;SDS011;16960;49.404;8.248;2023-05-10T08:18:55;2.70;;;1.10;;
30147;SDS011;16960;49.404;8.248;2023-05-10T08:21:23;1.03;;;0.90;;
30147;SDS011;16960;49.404;8.248;2023-05-10T08:23:51;1.57;;;1.10;;
30147;SDS011;16960;49.404;8.248;2023-05-10T08:26:18;1.20;;;1.10;;
30147;SDS011;16960;49.404;8.248;2023-05-10T08:28:46;1.30;;;1.20;;
30147;SDS011;16960;49.404;8.248;2023-05-10T08:31:13;1.47;;;1.10;;
30147;SDS011;16960;49.404;8.248;2023-05-10T08:33:40;0.97;;;0.87;;
30147;SDS011;16960;49.404;8.248;2023-05-10T08:36:07;1.70;;;1.30;;
30147;SDS011;16960;49.404;8.248;2023-05-10T08:38:36;1.20;;;1.10;;
30147;SDS011;16960;49.404;8.248;2023-05-10T08:41:04;1.33;;;1.07;;
30147;SDS011;16960;49.404;8.248;2023-05-10T08:43:31;1.60;;;1.00;;
30147;SDS011;16960;49.404;8.248;2023-05-10T08:46:00;1.60;;;1.00;;
30147;SDS011;16960;49.404;8.248;2023-05-10T08:48:27;1.53;;;1.07;;
30147;SDS011;16960;49.404;8.248;2023-05-10T08:50:55;1.60;;;1.40;;
30147;SDS011;16960;49.404;8.248;2023-05-10T08:53:25;1.50;;;1.20;;
30147;SDS011;16960;49.404;8.248;2023-05-10T08:55:56;1.00;;;0.90;;
30147;SDS011;16960;49.404;8.248;2023-05-10T08:58:24;1.60;;;0.93;;
30147;SDS011;16960;49.404;8.248;2023-05-10T09:00:51;1.30;;;1.10;;
30147;SDS011;16960;49.404;8.248;2023-05-10T09:03:19;1.20;;;0.90;;
30147;SDS011;16960;49.404;8.248;2023-05-10T09:05:46;0.83;;;0.70;;
30147;SDS011;16960;49.404;8.248;2023-05-10T09:08:14;1.50;;;1.10;;
30147;SDS011;16960;49.404;8.248;2023-05-10T09:10:42;1.43;;;1.00;;
30147;SDS011;16960;49.404;8.248;2023-05-10T09:13:13;1.00;;;0.90;;
30147;SDS011;16960;49.404;8.248;2023-05-10T09:15:41;1.43;;;1.20;;
30147;SDS011;16960;49.404;8.248;2023-05-10T09:18:09;1.43;;;1.20;;
30147;SDS011;16960;49.404;8.248;2023-05-10T09:20:36;1.23;;;0.90;;
30147;SDS011;16960;49.404;8.248;2023-05-10T09:23:03;1.37;;;0.90;;
30147;SDS011;16960;49.404;8.248;2023-05-10T09:25:30;0.83;;;0.77;;
30147;SDS011;16960;49.404;8.248;2023-05-10T09:27:58;1.80;;;0.80;;
30147;SDS011;16960;49.404;8.248;2023-05-10T09:30:27;1.37;;;1.17;;
30147;SDS011;16960;49.404;8.248;2023-05-10T09:32:55;1.57;;;0.80;;
30147;SDS011;16960;49.404;8.248;2023-05-10T09:35:23;1.03;;;0.70;;
30147;SDS011;16960;49.404;8.248;2023-05-10T09:37:52;1.87;;;0.87;;
30147;SDS011;16960;49.404;8.248;2023-05-10T09:40:20;1.00;;;0.90;;
30147;SDS011;16960;49.404;8.248;2023-05-10T09:42:51;1.07;;;0.97;;
30147;SDS011;16960;49.404;8.248;2023-05-10T09:45:19;1.00;;;0.80;;
30147;SDS011;16960;49.404;8.248;2023-05-10T09:47:48;0.93;;;0.60;;
30147;SDS011;16960;49.404;8.248;2023-05-10T09:50:15;1.63;;;0.73;;
30147;SDS011;16960;49.404;8.248;2023-05-10T09:52:46;0.97;;;0.70;;
30147;SDS011;16960;49.404;8.248;2023-05-10T09:55:14;1.07;;;0.80;;
30147;SDS011;16960;49.404;8.248;2023-05-10T09:57:42;0.70;;;0.70;;
30147;SDS011;16960;49.404;8.248;2023-05-10T10:00:09;1.10;;;0.83;;
30147;SDS011;16960;49.404;8.248;2023-05-10T10:02:42;1.60;;;0.90;;
30147;SDS011;16960;49.404;8.248;2023-05-10T10:05:13;1.17;;;1.00;;
30147;SDS011;16960;49.404;8.248;2023-05-10T10:07:40;1.00;;;0.90;;
30147;SDS011;16960;49.404;8.248;2023-05-10T10:10:07;0.80;;;0.63;;
30147;SDS011;16960;49.404;8.248;2023-05-10T10:12:37;1.67;;;0.93;;
30147;SDS011;16960;49.404;8.248;2023-05-10T10:15:05;1.10;;;1.00;;
30147;SDS011;16960;49.404;8.248;2023-05-10T10:17:34;1.47;;;0.83;;
30147;SDS011;16960;49.404;8.248;2023-05-10T10:20:03;1.43;;;0.90;;
30147;SDS011;16960;49.404;8.248;2023-05-10T10:22:32;0.70;;;0.60;;
30147;SDS011;16960;49.404;8.248;2023-05-10T10:24:59;1.10;;;1.00;;
30147;SDS011;16960;49.404;8.248;2023-05-10T10:27:28;0.70;;;0.70;;
30147;SDS011;16960;49.404;8.248;2023-05-10T10:30:09;1.20;;;1.03;;
30147;SDS011;16960;49.404;8.248;2023-05-10T10:32:53;1.60;;;0.70;;
30147;SDS011;16960;49.404;8.248;2023-05-10T10:35:36;0.60;;;0.57;;
30147;SDS011;16960;49.404;8.248;2023-05-10T10:38:07;0.90;;;0.70;;
30147;SDS011;16960;49.404;8.248;2023-05-10T10:40:34;1.33;;;0.80;;
30147;SDS011;16960;49.404;8.248;2023-05-10T10:45:48;2.20;;;0.77;;
30147;SDS011;16960;49.404;8.248;2023-05-10T10:48:36;0.87;;;0.60;;
30147;SDS011;16960;49.404;8.248;2023-05-10T10:51:03;0.90;;;0.70;;
30147;SDS011;16960;49.404;8.248;2023-05-10T10:53:31;0.83;;;0.77;;
30147;SDS011;16960;49.404;8.248;2023-05-10T10:56:02;1.07;;;0.70;;
30147;SDS011;16960;49.404;8.248;2023-05-10T10:58:34;0.87;;;0.83;;
30147;SDS011;16960;49.404;8.248;2023-05-10T11:01:12;1.27;;;0.63;;
30147;SDS011;16960;49.404;8.248;2023-05-10T11:03:41;0.70;;;0.70;;
30147;SDS011;16960;49.404;8.248;2023-05-10T11:06:28;1.40;;;0.90;;
30147;SDS011;16960;49.404;8.248;2023-05-10T11:08:58;0.90;;;0.60;;
30147;SDS011;16960;49.404;8.248;2023-05-10T11:11:25;0.60;;;0.50;;
30147;SDS011;16960;49.404;8.248;2023-05-10T11:13:52;1.07;;;0.80;;
30147;SDS011;16960;49.404;8.248;2023-05-10T11:16:19;1.00;;;0.67;;
30147;SDS011;16960;49.404;8.248;2023-05-10T11:18:52;1.00;;;0.90;;
30147;SDS011;16960;49.404;8.248;2023-05-10T11:21:20;1.07;;;0.70;;
30147;SDS011;16960;49.404;8.248;2023-05-10T11:23:47;0.70;;;0.70;;
30147;SDS011;16960;49.404;8.248;2023-05-10T11:26:17;1.20;;;0.80;;
30147;SDS011;16960;49.404;8.248;2023-05-10T11:28:48;1.20;;;0.80;;
30147;SDS011;16960;49.404;8.248;2023-05-10T11:31:16;0.90;;;0.50;;
30147;SDS011;16960;49.404;8.248;2023-05-10T11:33:44;0.70;;;0.40;;
30147;SDS011;16960;49.404;8.248;2023-05-10T11:36:13;0.73;;;0.63;;
30147;SDS011;16960;49.404;8.248;2023-05-10T11:38:41;0.90;;;0.50;;
30147;SDS011;16960;49.404;8.248;2023-05-10T11:41:08;0.70;;;0.70;;
30147;SDS011;16960;49.404;8.248;2023-05-10T11:43:37;1.40;;;0.70;;
30147;SDS011;16960;49.404;8.248;2023-05-10T11:46:06;0.73;;;0.53;;
30147;SDS011;16960;49.404;8.248;2023-05-10T11:48:33;0.60;;;0.60;;
30147;SDS011;16960;49.404;8.248;2023-05-10T11:51:01;0.90;;;0.60;;
30147;SDS011;16960;49.404;8.248;2023-05-10T11:53:29;1.00;;;0.60;;
30147;SDS011;16960;49.404;8.248;2023-05-10T11:56:02;0.70;;;0.60;;
30147;SDS011;16960;49.404;8.248;2023-05-10T11:58:30;0.80;;;0.53;;
30147;SDS011;16960;49.404;8.248;2023-05-10T12:00:59;1.10;;;0.70;;
30147;SDS011;16960;49.404;8.248;2023-05-10T12:03:26;0.70;;;0.53;;
30147;SDS011;16960;49.404;8.248;2023-05-10T12:05:53;1.03;;;0.80;;
30147;SDS011;16960;49.404;8.248;2023-05-10T12:08:21;1.13;;;0.60;;
30147;SDS011;16960;49.404;8.248;2023-05-10T12:10:50;0.73;;;0.63;;
30147;SDS011;16960;49.404;8.248;2023-05-10T12:13:18;0.83;;;0.83;;
30147;SDS011;16960;49.404;8.248;2023-05-10T12:15:46;1.23;;;0.70;;
30147;SDS011;16960;49.404;8.248;2023-05-10T12:18:14;1.03;;;0.77;;
30147;SDS011;16960;49.404;8.248;2023-05-10T12:20:48;0.60;;;0.60;;
30147;SDS011;16960;49.404;8.248;2023-05-10T12:23:18;0.97;;;0.80;;
30147;SDS011;16960;49.404;8.248;2023-05-10T12:25:46;0.90;;;0.70;;
30147;SDS011;16960;49.404;8.248;2023-05-10T12:28:13;0.97;;;0.87;;
30147;SDS011;16960;49.404;8.248;2023-05-10T12:30:40;1.27;;;0.67;;
30147;SDS011;16960;49.404;8.248;2023-05-10T12:33:08;0.70;;;0.60;;
30147;SDS011;16960;49.404;8.248;2023-05-10T12:35:47;0.70;;;0.63;;
30147;SDS011;16960;49.404;8.248;2023-05-10T12:38:28;1.20;;;0.83;;
30147;SDS011;16960;49.404;8.248;2023-05-10T12:40:56;0.70;;;0.50;;
30147;SDS011;16960;49.404;8.248;2023-05-10T12:43:24;1.20;;;0.43;;
30147;SDS011;16960;49.404;8.248;2023-05-10T12:45:51;0.90;;;0.70;;
30147;SDS011;16960;49.404;8.248;2023-05-10T12:48:18;2.00;;;0.73;;
30147;SDS011;16960;49.404;8.248;2023-05-10T12:50:45;2.07;;;0.90;;
30147;SDS011;16960;49.404;8.248;2023-05-10T12:53:13;0.80;;;0.60;;
30147;SDS011;16960;49.404;8.248;2023-05-10T12:55:40;0.70;;;0.60;;
30147;SDS011;16960;49.404;8.248;2023-05-10T12:58:07;0.90;;;0.70;;
30147;SDS011;16960;49.404;8.248;2023-05-10T13:00:34;0.60;;;0.47;;
30147;SDS011;16960;49.404;8.248;2023-05-10T13:03:03;0.90;;;0.70;;
30147;SDS011;16960;49.404;8.248;2023-05-10T13:05:30;0.73;;;0.50;;
30147;SDS011;16960;49.404;8.248;2023-05-10T13:07:59;0.50;;;0.40;;
30147;SDS011;16960;49.404;8.248;2023-05-10T13:10:26;0.67;;;0.53;;
30147;SDS011;16960;49.404;8.248;2023-05-10T13:12:54;1.90;;;0.70;;
30147;SDS011;16960;49.404;8.248;2023-05-10T13:15:22;0.83;;;0.60;;
30147;SDS011;16960;49.404;8.248;2023-05-10T13:17:49;3.33;;;0.70;;
30147;SDS011;16960;49.404;8.248;2023-05-10T13:20:16;1.47;;;0.80;;
30147;SDS011;16960;49.404;8.248;2023-05-10T13:22:43;0.80;;;0.40;;
30147;SDS011;16960;49.404;8.248;2023-05-10T13:25:11;1.00;;;0.60;;
30147;SDS011;16960;49.404;8.248;2023-05-10T13:27:38;0.80;;;0.63;;
30147;SDS011;16960;49.404;8.248;2023-05-10T13:30:06;0.80;;;0.67;;
30147;SDS011;16960;49.404;8.248;2023-05-10T13:32:33;1.23;;;0.67;;
30147;SDS011;16960;49.404;8.248;2023-05-10T13:35:01;0.97;;;0.67;;
30147;SDS011;16960;49.404;8.248;2023-05-10T13:37:28;0.50;;;0.47;;
30147;SDS011;16960;49.404;8.248;2023-05-10T13:39:55;1.03;;;0.50;;
30147;SDS011;16960;49.404;8.248;2023-05-10T13:42:23;0.70;;;0.63;;
30147;SDS011;16960;49.404;8.248;2023-05-10T13:44:50;0.50;;;0.40;;
30147;SDS011;16960;49.404;8.248;2023-05-10T13:47:17;0.70;;;0.50;;
30147;SDS011;16960;49.404;8.248;2023-05-10T13:49:46;0.90;;;0.60;;
30147;SDS011;16960;49.404;8.248;2023-05-10T13:52:13;0.63;;;0.63;;
30147;SDS011;16960;49.404;8.248;2023-05-10T13:54:40;0.67;;;0.40;;
30147;SDS011;16960;49.404;8.248;2023-05-10T13:57:07;1.00;;;0.73;;
30147;SDS011;16960;49.404;8.248;2023-05-10T13:59:35;0.60;;;0.50;;
30147;SDS011;16960;49.404;8.248;2023-05-10T14:02:02;1.00;;;0.50;;
30147;SDS011;16960;49.404;8.248;2023-05-10T14:04:29;0.90;;;0.60;;
30147;SDS011;16960;49.404;8.248;2023-05-10T14:06:56;0.60;;;0.50;;
30147;SDS011;16960;49.404;8.248;2023-05-10T14:09:23;0.77;;;0.60;;
30147;SDS011;16960;49.404;8.248;2023-05-10T14:11:50;0.73;;;0.57;;
30147;SDS011;16960;49.404;8.248;2023-05-10T14:14:17;0.60;;;0.60;;
30147;SDS011;16960;49.404;8.248;2023-05-10T14:16:45;1.27;;;0.57;;
30147;SDS011;16960;49.404;8.248;2023-05-10T14:19:12;0.87;;;0.57;;
30147;SDS011;16960;49.404;8.248;2023-05-10T14:21:39;2.20;;;0.60;;
30147;SDS011;16960;49.404;8.248;2023-05-10T14:24:06;0.77;;;0.60;;
30147;SDS011;16960;49.404;8.248;2023-05-10T14:26:33;0.57;;;0.57;;
30147;SDS011;16960;49.404;8.248;2023-05-10T14:29:00;0.60;;;0.40;;
30147;SDS011;16960;49.404;8.248;2023-05-10T14:31:27;0.93;;;0.80;;
30147;SDS011;16960;49.404;8.248;2023-05-10T14:33:56;0.40;;;0.30;;
30147;SDS011;16960;49.404;8.248;2023-05-10T14:36:24;0.70;;;0.60;;
30147;SDS011;16960;49.404;8.248;2023-05-10T14:38:51;0.80;;;0.50;;
30147;SDS011;16960;49.404;8.248;2023-05-10T14:41:18;0.87;;;0.50;;
30147;SDS011;16960;49.404;8.248;2023-05-10T14:43:45;0.70;;;0.47;;
30147;SDS011;16960;49.404;8.248;2023-05-10T14:46:12;0.70;;;0.50;;
30147;SDS011;16960;49.404;8.248;2023-05-10T14:48:38;1.23;;;0.50;;
30147;SDS011;16960;49.404;8.248;2023-05-10T14:51:07;1.17;;;0.83;;
30147;SDS011;16960;49.404;8.248;2023-05-10T14:53:34;0.70;;;0.50;;
30147;SDS011;16960;49.404;8.248;2023-05-10T14:56:00;0.70;;;0.47;;
30147;SDS011;16960;49.404;8.248;2023-05-10T14:58:28;0.53;;;0.50;;